createdAt,value
2018-09-15T00:00:29.973Z,2.63
2018-09-15T00:01:33.366Z,2.87
2018-09-15T00:02:36.785Z,2.30
2018-09-15T00:03:40.165Z,2.40
2018-09-15T00:04:43.560Z,2.40
2018-09-15T00:05:46.922Z,2.47
2018-09-15T00:06:50.346Z,3.33
2018-09-15T00:07:53.783Z,2.73
2018-09-15T00:08:57.176Z,2.57
2018-09-15T00:10:00.600Z,2.70
2018-09-15T00:11:04.119Z,2.10
2018-09-15T00:12:07.484Z,2.50
2018-09-15T00:13:11.069Z,2.47
2018-09-15T00:14:14.425Z,2.67
2018-09-15T00:15:17.819Z,2.73
2018-09-15T00:16:21.239Z,2.70
2018-09-15T00:17:24.699Z,2.17
2018-09-15T00:18:28.100Z,2.47
2018-09-15T00:19:31.454Z,2.03
2018-09-15T00:20:34.836Z,2.27
2018-09-15T00:21:38.302Z,2.47
2018-09-15T00:22:41.697Z,2.63
2018-09-15T00:23:45.101Z,2.17
2018-09-15T00:24:48.552Z,2.60
2018-09-15T00:25:51.940Z,2.77
2018-09-15T00:26:55.370Z,2.50
2018-09-15T00:27:58.784Z,2.50
2018-09-15T00:29:02.211Z,2.27
2018-09-15T00:30:05.658Z,2.00
2018-09-15T00:31:09.076Z,3.40
2018-09-15T00:32:12.472Z,2.27
2018-09-15T00:33:15.876Z,2.80
2018-09-15T00:34:19.302Z,2.10
2018-09-15T00:35:22.829Z,2.93
2018-09-15T00:36:26.243Z,2.20
2018-09-15T00:37:29.606Z,2.30
2018-09-15T00:38:32.981Z,2.10
2018-09-15T00:39:36.419Z,2.83
2018-09-15T00:40:39.825Z,2.60
2018-09-15T00:41:43.269Z,2.23
2018-09-15T00:42:46.880Z,2.07
2018-09-15T00:43:50.276Z,2.00
2018-09-15T00:44:53.688Z,2.07
2018-09-15T00:45:57.071Z,2.10
2018-09-15T00:47:00.446Z,2.63
2018-09-15T00:48:03.872Z,2.43
2018-09-15T00:49:07.288Z,2.23
2018-09-15T00:50:10.716Z,2.47
2018-09-15T00:51:14.136Z,2.33
2018-09-15T00:52:17.530Z,1.90
2018-09-15T00:53:20.932Z,2.17
2018-09-15T00:54:24.335Z,2.47
2018-09-15T00:55:27.722Z,2.07
2018-09-15T00:56:31.138Z,2.27
2018-09-15T00:57:34.798Z,2.70
2018-09-15T00:58:38.222Z,2.33
2018-09-15T00:59:41.642Z,2.03
2018-09-15T01:00:45.066Z,2.73
2018-09-15T01:01:48.448Z,2.70
2018-09-15T01:02:51.872Z,1.90
2018-09-15T01:03:55.274Z,2.07
2018-09-15T01:04:58.739Z,2.40
2018-09-15T01:06:02.113Z,2.30
2018-09-15T01:07:05.621Z,2.17
2018-09-15T01:08:09.015Z,2.53
2018-09-15T01:09:12.431Z,2.30
2018-09-15T01:10:15.829Z,2.10
2018-09-15T01:11:19.281Z,1.93
2018-09-15T01:12:22.787Z,2.10
2018-09-15T01:13:26.211Z,2.27
2018-09-15T01:14:29.669Z,1.97
2018-09-15T01:15:33.032Z,2.40
2018-09-15T01:16:36.454Z,2.13
2018-09-15T01:17:39.873Z,2.50
2018-09-15T01:18:43.253Z,2.30
2018-09-15T01:19:46.762Z,2.27
2018-09-15T01:20:50.185Z,2.20
2018-09-15T01:21:53.607Z,1.97
2018-09-15T01:22:56.988Z,2.30
2018-09-15T01:24:00.375Z,2.10
2018-09-15T01:25:03.817Z,2.07
2018-09-15T01:26:07.264Z,2.03
2018-09-15T01:27:10.626Z,1.80
2018-09-15T01:28:14.022Z,2.00
2018-09-15T01:29:17.456Z,2.17
2018-09-15T01:30:20.913Z,2.60
2018-09-15T01:31:24.554Z,1.70
2018-09-15T01:32:28.749Z,1.93
2018-09-15T01:33:32.200Z,2.00
2018-09-15T01:34:35.620Z,2.20
2018-09-15T01:35:39.049Z,2.33
2018-09-15T01:36:42.447Z,2.20
2018-09-15T01:37:45.881Z,2.23
2018-09-15T01:38:49.309Z,1.70
2018-09-15T01:39:52.681Z,1.60
2018-09-15T01:40:56.060Z,2.10
2018-09-15T01:41:59.460Z,2.00
2018-09-15T01:43:02.871Z,1.87
2018-09-15T01:44:06.307Z,1.97
2018-09-15T01:45:09.747Z,1.90
2018-09-15T01:46:13.130Z,2.23
2018-09-15T01:47:16.546Z,1.93
2018-09-15T01:48:19.989Z,3.13
2018-09-15T01:49:23.526Z,1.80
2018-09-15T01:50:26.969Z,2.03
2018-09-15T01:51:30.366Z,1.90
2018-09-15T01:52:33.818Z,2.37
2018-09-15T01:53:37.467Z,1.90
2018-09-15T01:54:40.853Z,2.07
2018-09-15T01:55:44.309Z,1.93
2018-09-15T01:56:47.691Z,1.87
2018-09-15T01:57:51.106Z,1.93
2018-09-15T01:58:54.661Z,2.93
2018-09-15T01:59:58.080Z,2.00
2018-09-15T02:01:01.450Z,1.93
2018-09-15T02:02:04.964Z,2.10
2018-09-15T02:03:08.346Z,1.70
2018-09-15T02:04:11.752Z,2.37
2018-09-15T02:05:15.191Z,2.37
2018-09-15T02:06:18.845Z,1.93
2018-09-15T02:07:22.253Z,2.13
2018-09-15T02:08:25.685Z,1.90
2018-09-15T02:09:29.116Z,2.20
2018-09-15T02:10:32.536Z,2.27
2018-09-15T02:11:35.939Z,2.10
2018-09-15T02:12:39.383Z,1.73
2018-09-15T02:13:42.774Z,1.90
2018-09-15T02:14:46.207Z,2.50
2018-09-15T02:15:49.766Z,1.80
2018-09-15T02:16:53.176Z,2.33
2018-09-15T02:17:56.564Z,1.70
2018-09-15T02:18:59.990Z,1.80
2018-09-15T02:20:03.511Z,2.00
2018-09-15T02:21:06.956Z,2.20
2018-09-15T02:22:10.364Z,1.80
2018-09-15T02:23:14.006Z,2.07
2018-09-15T02:24:17.386Z,1.77
2018-09-15T02:25:21.031Z,2.00
2018-09-15T02:26:24.415Z,1.67
2018-09-15T02:27:27.787Z,1.73
2018-09-15T02:28:31.161Z,1.70
2018-09-15T02:29:34.558Z,1.67
2018-09-15T02:30:37.984Z,1.83
2018-09-15T02:31:41.360Z,1.70
2018-09-15T02:32:44.824Z,1.97
2018-09-15T02:33:48.409Z,1.83
2018-09-15T02:34:51.825Z,2.13
2018-09-15T02:35:55.264Z,1.90
2018-09-15T02:36:58.652Z,2.00
2018-09-15T02:38:02.063Z,1.73
2018-09-15T02:39:08.187Z,1.80
2018-09-15T02:40:11.580Z,1.80
2018-09-15T02:41:15.772Z,2.30
2018-09-15T02:42:19.215Z,1.43
2018-09-15T02:43:22.708Z,2.07
2018-09-15T02:44:26.071Z,1.80
2018-09-15T02:45:29.459Z,2.00
2018-09-15T02:46:33.158Z,1.90
2018-09-15T02:47:36.572Z,1.80
2018-09-15T02:48:39.984Z,1.73
2018-09-15T02:49:43.366Z,2.07
2018-09-15T02:50:46.750Z,2.07
2018-09-15T02:51:50.218Z,1.63
2018-09-15T02:52:53.644Z,1.83
2018-09-15T02:53:57.010Z,1.77
2018-09-15T02:55:00.396Z,1.67
2018-09-15T02:56:03.829Z,1.90
2018-09-15T02:57:07.242Z,1.93
2018-09-15T02:58:10.662Z,2.27
2018-09-15T02:59:14.112Z,2.07
2018-09-15T03:00:17.457Z,1.77
2018-09-15T03:01:21.035Z,2.30
2018-09-15T03:02:24.446Z,1.90
2018-09-15T03:03:27.873Z,2.40
2018-09-15T03:04:31.289Z,1.70
2018-09-15T03:05:34.751Z,1.80
2018-09-15T03:06:38.143Z,2.20
2018-09-15T03:07:41.523Z,1.43
2018-09-15T03:08:44.924Z,2.00
2018-09-15T03:09:48.388Z,1.80
2018-09-15T03:10:52.010Z,2.13
2018-09-15T03:11:55.340Z,2.27
2018-09-15T03:12:58.755Z,1.80
2018-09-15T03:14:02.135Z,1.73
2018-09-15T03:15:05.774Z,1.50
2018-09-15T03:16:09.172Z,1.70
2018-09-15T03:17:12.566Z,2.00
2018-09-15T03:18:15.934Z,1.83
2018-09-15T03:19:19.421Z,2.20
2018-09-15T03:20:22.793Z,2.17
2018-09-15T03:21:26.188Z,1.67
2018-09-15T03:22:29.668Z,1.50
2018-09-15T03:23:33.064Z,1.73
2018-09-15T03:24:36.560Z,1.90
2018-09-15T03:25:39.982Z,2.10
2018-09-15T03:26:43.346Z,1.90
2018-09-15T03:27:46.735Z,1.60
2018-09-15T03:28:50.149Z,2.10
2018-09-15T03:29:53.544Z,1.77
2018-09-15T03:30:56.959Z,1.90
2018-09-15T03:32:00.628Z,1.53
2018-09-15T03:33:04.117Z,2.23
2018-09-15T03:34:07.735Z,2.40
2018-09-15T03:35:11.112Z,1.77
2018-09-15T03:36:14.482Z,1.73
2018-09-15T03:37:17.883Z,2.00
2018-09-15T03:38:21.345Z,1.80
2018-09-15T03:39:24.743Z,2.07
2018-09-15T03:40:28.177Z,1.97
2018-09-15T03:41:31.582Z,2.00
2018-09-15T03:42:35.027Z,2.23
2018-09-15T03:43:38.404Z,1.57
2018-09-15T03:44:41.814Z,2.10
2018-09-15T03:45:45.221Z,2.10
2018-09-15T03:46:48.593Z,2.30
2018-09-15T03:47:52.208Z,2.17
2018-09-15T03:48:55.584Z,1.97
2018-09-15T03:49:58.992Z,2.00
2018-09-15T03:51:02.437Z,1.80
2018-09-15T03:52:05.867Z,1.93
2018-09-15T03:53:09.277Z,1.50
2018-09-15T03:54:16.516Z,1.77
2018-09-15T03:55:19.975Z,2.10
2018-09-15T03:56:23.337Z,1.67
2018-09-15T03:57:26.720Z,1.80
2018-09-15T03:58:30.124Z,1.77
2018-09-15T03:59:33.514Z,2.17
2018-09-15T04:00:36.924Z,2.03
2018-09-15T04:01:40.303Z,1.70
2018-09-15T04:02:43.684Z,1.77
2018-09-15T04:03:47.297Z,2.17
2018-09-15T04:04:50.668Z,1.60
2018-09-15T04:05:54.071Z,1.83
2018-09-15T04:06:57.448Z,1.73
2018-09-15T04:08:00.837Z,2.23
2018-09-15T04:09:05.741Z,2.00
2018-09-15T04:10:09.139Z,1.93
2018-09-15T04:11:12.529Z,1.63
2018-09-15T04:12:15.924Z,2.60
2018-09-15T04:13:19.318Z,1.60
2018-09-15T04:14:22.796Z,1.37
2018-09-15T04:15:26.164Z,1.93
2018-09-15T04:16:29.525Z,2.00
2018-09-15T04:17:32.939Z,1.47
2018-09-15T04:18:36.329Z,1.73
2018-09-15T04:19:39.749Z,1.87
2018-09-15T04:20:43.738Z,2.10
2018-09-15T04:21:47.162Z,1.90
2018-09-15T04:22:50.543Z,1.80
2018-09-15T04:23:53.910Z,1.83
2018-09-15T04:24:57.330Z,1.53
2018-09-15T04:26:00.706Z,2.20
2018-09-15T04:27:04.126Z,1.63
2018-09-15T04:28:07.530Z,1.60
2018-09-15T04:29:10.918Z,1.60
2018-09-15T04:30:14.402Z,2.00
2018-09-15T04:31:17.788Z,2.27
2018-09-15T04:32:21.200Z,1.53
2018-09-15T04:33:24.620Z,1.80
2018-09-15T04:34:28.055Z,1.80
2018-09-15T04:35:31.449Z,1.50
2018-09-15T04:36:34.877Z,1.47
2018-09-15T04:37:38.265Z,1.30
2018-09-15T04:38:41.797Z,1.73
2018-09-15T04:39:45.223Z,1.97
2018-09-15T04:40:48.628Z,1.33
2018-09-15T04:41:52.164Z,1.80
2018-09-15T04:42:55.547Z,1.80
2018-09-15T04:43:58.971Z,1.60
2018-09-15T04:45:02.398Z,2.03
2018-09-15T04:46:06.109Z,1.30
2018-09-15T04:47:09.492Z,1.67
2018-09-15T04:48:12.876Z,1.60
2018-09-15T04:49:16.245Z,1.20
2018-09-15T04:50:19.633Z,1.37
2018-09-15T04:51:23.037Z,1.73
2018-09-15T04:52:26.464Z,1.57
2018-09-15T04:53:29.891Z,1.77
2018-09-15T04:54:33.327Z,1.77
2018-09-15T04:55:36.721Z,2.10
2018-09-15T04:56:40.146Z,1.60
2018-09-15T04:57:43.531Z,1.60
2018-09-15T04:58:47.154Z,1.90
2018-09-15T04:59:50.501Z,1.40
2018-09-15T05:00:53.900Z,1.20
2018-09-15T05:01:57.294Z,1.60
2018-09-15T05:03:00.864Z,1.60
2018-09-15T05:04:04.917Z,1.90
2018-09-15T05:05:08.378Z,1.63
2018-09-15T05:06:11.741Z,1.40
2018-09-15T05:07:15.167Z,1.60
2018-09-15T05:08:18.585Z,1.80
2018-09-15T05:09:22.002Z,1.50
2018-09-15T05:10:25.434Z,1.60
2018-09-15T05:11:28.838Z,1.50
2018-09-15T05:12:32.294Z,1.60
2018-09-15T05:13:35.701Z,1.10
2018-09-15T05:14:39.164Z,1.53
2018-09-15T05:15:42.552Z,1.67
2018-09-15T05:16:45.919Z,2.33
2018-09-15T05:17:49.322Z,1.20
2018-09-15T05:18:52.754Z,1.30
2018-09-15T05:19:56.130Z,1.40
2018-09-15T05:20:59.528Z,1.30
2018-09-15T05:22:04.067Z,1.77
2018-09-15T05:23:07.550Z,1.63
2018-09-15T05:24:10.905Z,1.67
2018-09-15T05:25:14.298Z,1.83
2018-09-15T05:26:17.681Z,1.73
2018-09-15T05:27:21.084Z,1.73
2018-09-15T05:28:24.437Z,1.50
2018-09-15T05:29:27.914Z,1.80
2018-09-15T05:30:31.310Z,1.50
2018-09-15T05:31:34.749Z,1.60
2018-09-15T05:32:38.213Z,1.67
2018-09-15T05:33:41.627Z,1.40
2018-09-15T05:34:44.986Z,1.57
2018-09-15T05:35:48.380Z,2.00
2018-09-15T05:36:52.082Z,1.57
2018-09-15T05:37:55.520Z,1.33
2018-09-15T05:38:58.896Z,2.20
2018-09-15T05:40:02.385Z,1.40
2018-09-15T05:41:05.879Z,1.40
2018-09-15T05:42:09.276Z,1.80
2018-09-15T05:43:12.712Z,1.67
2018-09-15T05:44:16.106Z,1.50
2018-09-15T05:45:19.486Z,1.70
2018-09-15T05:46:22.876Z,1.70
2018-09-15T05:47:26.284Z,1.47
2018-09-15T05:48:30.338Z,1.43
2018-09-15T05:49:33.751Z,1.90
2018-09-15T05:50:37.163Z,1.50
2018-09-15T05:51:40.591Z,2.00
2018-09-15T05:52:43.969Z,1.70
2018-09-15T05:53:47.366Z,1.80
2018-09-15T05:54:50.756Z,1.40
2018-09-15T05:55:54.202Z,1.43
2018-09-15T05:56:57.616Z,1.37
2018-09-15T05:58:01.022Z,1.70
2018-09-15T05:59:04.534Z,1.33
2018-09-15T06:00:08.181Z,1.23
2018-09-15T06:01:11.653Z,2.10
2018-09-15T06:02:15.048Z,1.47
2018-09-15T06:03:18.424Z,1.50
2018-09-15T06:04:21.901Z,1.73
2018-09-15T06:05:25.344Z,1.67
2018-09-15T06:06:28.777Z,1.43
2018-09-15T06:07:32.187Z,1.40
2018-09-15T06:08:35.597Z,1.60
2018-09-15T06:09:39.007Z,1.60
2018-09-15T06:10:42.389Z,1.50
2018-09-15T06:11:45.806Z,1.67
2018-09-15T06:12:49.231Z,1.60
2018-09-15T06:13:52.674Z,1.57
2018-09-15T06:14:56.042Z,1.30
2018-09-15T06:15:59.454Z,1.30
2018-09-15T06:17:02.927Z,1.80
2018-09-15T06:18:06.363Z,1.60
2018-09-15T06:19:09.781Z,1.67
2018-09-15T06:20:13.240Z,1.17
2018-09-15T06:21:16.636Z,1.67
2018-09-15T06:22:20.147Z,1.90
2018-09-15T06:23:23.539Z,1.40
2018-09-15T06:24:26.947Z,1.40
2018-09-15T06:25:30.559Z,1.67
2018-09-15T06:26:34.462Z,1.27
2018-09-15T06:27:38.637Z,1.57
2018-09-15T06:28:42.198Z,1.40
2018-09-15T06:29:45.617Z,1.27
2018-09-15T06:30:49.059Z,1.17
2018-09-15T06:31:52.557Z,1.53
2018-09-15T06:32:55.984Z,1.60
2018-09-15T06:33:59.370Z,1.20
2018-09-15T06:35:02.787Z,1.27
2018-09-15T06:36:06.192Z,1.30
2018-09-15T06:37:09.611Z,1.60
2018-09-15T06:38:13.020Z,1.20
2018-09-15T06:39:16.453Z,1.20
2018-09-15T06:40:19.845Z,1.60
2018-09-15T06:41:23.256Z,1.30
2018-09-15T06:42:26.809Z,1.20
2018-09-15T06:43:30.274Z,1.80
2018-09-15T06:44:33.643Z,1.50
2018-09-15T06:45:37.071Z,1.60
2018-09-15T06:46:40.483Z,1.20
2018-09-15T06:47:43.894Z,1.30
2018-09-15T06:48:47.569Z,1.20
2018-09-15T06:49:50.976Z,1.60
2018-09-15T06:50:54.360Z,1.10
2018-09-15T06:51:57.790Z,1.50
2018-09-15T06:53:01.285Z,1.70
2018-09-15T06:54:04.747Z,1.50
2018-09-15T06:55:08.380Z,1.40
2018-09-15T06:56:11.758Z,1.23
2018-09-15T06:57:15.172Z,1.53
2018-09-15T06:58:18.572Z,1.13
2018-09-15T06:59:21.983Z,1.30
2018-09-15T07:00:25.403Z,1.40
2018-09-15T07:01:28.822Z,1.50
2018-09-15T07:02:32.270Z,1.10
2018-09-15T07:03:35.688Z,1.40
2018-09-15T07:04:39.059Z,1.23
2018-09-15T07:05:42.461Z,1.10
2018-09-15T07:06:45.842Z,1.30
2018-09-15T07:07:49.233Z,1.40
2018-09-15T07:08:52.632Z,1.10
2018-09-15T07:09:56.032Z,1.57
2018-09-15T07:10:59.447Z,1.60
2018-09-15T07:12:02.945Z,1.70
2018-09-15T07:13:06.845Z,1.60
2018-09-15T07:14:10.643Z,1.57
2018-09-15T07:15:14.080Z,1.30
2018-09-15T07:16:17.468Z,1.30
2018-09-15T07:17:21.076Z,1.40
2018-09-15T07:18:24.474Z,1.23
2018-09-15T07:19:27.900Z,1.30
2018-09-15T07:20:31.335Z,1.30
2018-09-15T07:21:34.759Z,1.30
2018-09-15T07:22:38.190Z,1.00
2018-09-15T07:23:41.620Z,1.50
2018-09-15T07:24:44.998Z,1.17
2018-09-15T07:25:48.515Z,1.50
2018-09-15T07:26:51.912Z,1.50
2018-09-15T07:27:55.308Z,1.30
2018-09-15T07:28:58.688Z,1.10
2018-09-15T07:30:02.107Z,1.30
2018-09-15T07:31:05.630Z,1.17
2018-09-15T07:32:09.083Z,1.47
2018-09-15T07:33:12.499Z,1.13
2018-09-15T07:34:15.930Z,1.23
2018-09-15T07:35:19.352Z,1.03
2018-09-15T07:36:22.740Z,1.30
2018-09-15T07:37:26.184Z,1.30
2018-09-15T07:38:29.796Z,1.30
2018-09-15T07:39:33.466Z,1.40
2018-09-15T07:40:36.923Z,1.30
2018-09-15T07:41:40.636Z,1.00
2018-09-15T07:42:44.187Z,1.23
2018-09-15T07:43:47.982Z,1.30
2018-09-15T07:44:51.723Z,1.50
2018-09-15T07:45:55.360Z,1.30
2018-09-15T07:46:58.966Z,1.37
2018-09-15T07:48:02.751Z,1.90
2018-09-15T07:49:06.187Z,1.50
2018-09-15T07:50:09.577Z,1.53
2018-09-15T07:51:13.006Z,1.47
2018-09-15T07:52:16.386Z,1.30
2018-09-15T07:53:19.830Z,1.30
2018-09-15T07:54:23.240Z,1.33
2018-09-15T07:55:26.690Z,1.70
2018-09-15T07:56:30.527Z,1.30
2018-09-15T07:57:33.957Z,1.17
2018-09-15T07:58:37.429Z,1.93
2018-09-15T07:59:40.973Z,1.90
2018-09-15T08:00:44.352Z,2.47
2018-09-15T08:01:47.771Z,2.83
2018-09-15T08:02:51.920Z,2.40
2018-09-15T08:03:55.888Z,2.80
2018-09-15T08:04:59.454Z,3.00
2018-09-15T08:06:03.107Z,2.50
2018-09-15T08:07:06.642Z,3.20
2018-09-15T08:08:10.039Z,3.17
2018-09-15T08:09:13.433Z,2.60
2018-09-15T08:10:16.827Z,2.80
2018-09-15T08:11:20.206Z,2.60
2018-09-15T08:12:23.612Z,3.07
2018-09-15T08:13:27.000Z,3.20
2018-09-15T08:14:30.621Z,3.40
2018-09-15T08:15:34.392Z,3.57
2018-09-15T08:16:37.826Z,3.40
2018-09-15T08:17:41.221Z,3.47
2018-09-15T08:18:47.423Z,3.07
2018-09-15T08:19:52.197Z,2.93
2018-09-15T08:20:56.922Z,3.30
2018-09-15T08:22:01.617Z,3.10
2018-09-15T08:23:06.465Z,2.90
2018-09-15T08:24:11.965Z,3.50
2018-09-15T08:25:16.591Z,3.83
2018-09-15T08:26:21.702Z,3.40
2018-09-15T08:27:26.444Z,3.70
2018-09-15T08:28:31.232Z,3.67
2018-09-15T08:29:36.513Z,3.23
2018-09-15T08:30:41.211Z,3.63
2018-09-15T08:31:45.988Z,3.57
2018-09-15T08:32:49.687Z,4.27
2018-09-15T08:33:53.076Z,3.80
2018-09-15T08:34:57.379Z,3.47
2018-09-15T08:36:01.860Z,3.53
2018-09-15T08:37:07.200Z,3.50
2018-09-15T08:38:11.860Z,3.40
2018-09-15T08:39:16.432Z,3.93
2018-09-15T08:40:20.806Z,3.20
2018-09-15T08:41:25.572Z,2.87
2018-09-15T08:42:30.199Z,3.33
2018-09-15T08:43:35.012Z,3.50
2018-09-15T08:44:39.508Z,3.20
2018-09-15T08:45:46.031Z,3.17
2018-09-15T08:46:50.589Z,3.13
2018-09-15T08:47:55.020Z,3.00
2018-09-15T08:48:59.516Z,3.50
2018-09-15T08:50:04.251Z,3.40
2018-09-15T08:51:08.912Z,3.07
2018-09-15T08:52:13.479Z,3.50
2018-09-15T08:53:18.077Z,3.43
2018-09-15T08:54:22.797Z,3.47
2018-09-15T08:55:27.337Z,3.40
2018-09-15T08:56:32.064Z,3.30
2018-09-15T08:57:36.589Z,3.50
2018-09-15T08:58:41.000Z,3.40
2018-09-15T08:59:45.581Z,3.10
2018-09-15T09:04:15.095Z,2.70
2018-09-15T09:05:19.506Z,3.40
2018-09-15T09:06:24.101Z,3.00
2018-09-15T09:07:28.442Z,3.00
2018-09-15T09:08:32.931Z,3.33
2018-09-15T09:09:37.269Z,3.10
2018-09-15T09:10:41.800Z,3.40
2018-09-15T09:11:46.203Z,3.00
2018-09-15T09:12:50.862Z,2.93
2018-09-15T09:13:55.405Z,3.60
2018-09-15T09:14:59.917Z,3.20
2018-09-15T09:16:04.692Z,2.80
2018-09-15T09:17:09.356Z,2.60
2018-09-15T09:18:14.648Z,3.17
2018-09-15T09:19:19.320Z,2.80
2018-09-15T09:20:24.947Z,3.40
2018-09-15T09:21:29.394Z,2.60
2018-09-15T09:22:34.030Z,3.30
2018-09-15T09:23:38.803Z,3.20
2018-09-15T09:24:43.856Z,3.20
2018-09-15T09:25:48.557Z,2.87
2018-09-15T09:26:53.099Z,3.50
2018-09-15T09:27:57.605Z,3.13
2018-09-15T09:29:02.232Z,2.70
2018-09-15T09:30:06.975Z,3.13
2018-09-15T09:31:11.525Z,2.50
2018-09-15T09:32:16.149Z,2.77
2018-09-15T09:33:20.763Z,2.70
2018-09-15T09:34:25.256Z,2.83
2018-09-15T09:35:29.720Z,2.20
2018-09-15T09:36:34.604Z,2.47
2018-09-15T09:37:39.118Z,2.90
2018-09-15T09:38:44.413Z,2.47
2018-09-15T09:39:48.985Z,2.00
2018-09-15T09:40:53.993Z,2.60
2018-09-15T09:41:58.494Z,2.43
2018-09-15T09:43:03.215Z,2.40
2018-09-15T09:44:07.794Z,2.53
2018-09-15T09:45:12.401Z,3.07
2018-09-15T09:46:16.981Z,2.50
2018-09-15T09:47:21.934Z,2.33
2018-09-15T09:48:26.919Z,2.70
2018-09-15T09:49:31.464Z,2.57
2018-09-15T09:50:36.556Z,2.37
2018-09-15T09:51:41.464Z,2.00
2018-09-15T09:52:45.913Z,2.50
2018-09-15T09:53:50.562Z,2.13
2018-09-15T09:54:55.148Z,2.23
2018-09-15T09:56:00.061Z,2.50
2018-09-15T09:57:04.728Z,2.47
2018-09-15T09:58:09.250Z,2.60
2018-09-15T09:59:14.253Z,2.30
2018-09-15T10:00:23.665Z,2.00
2018-09-15T10:01:35.160Z,2.40
2018-09-15T10:02:38.785Z,2.50
2018-09-15T10:03:42.165Z,2.37
2018-09-15T10:04:45.578Z,2.10
2018-09-15T10:05:49.208Z,2.33
2018-09-15T10:06:52.631Z,2.40
2018-09-15T10:07:56.065Z,2.30
2018-09-15T10:08:59.467Z,1.90
2018-09-15T10:10:03.021Z,2.67
2018-09-15T10:11:08.342Z,2.57
2018-09-15T10:12:11.783Z,2.20
2018-09-15T10:13:15.237Z,2.57
2018-09-15T10:14:18.618Z,2.20
2018-09-15T10:15:22.098Z,1.73
2018-09-15T10:16:25.578Z,2.17
2018-09-15T10:17:28.901Z,2.20
2018-09-15T10:18:32.353Z,1.80
2018-09-15T10:19:35.901Z,1.93
2018-09-15T10:20:39.321Z,2.33
2018-09-15T10:21:42.770Z,1.87
2018-09-15T10:22:46.142Z,2.30
2018-09-15T10:23:49.518Z,2.30
2018-09-15T10:24:52.917Z,2.43
2018-09-15T10:25:56.330Z,2.13
2018-09-15T10:26:59.707Z,1.53
2018-09-15T10:28:03.102Z,2.10
2018-09-15T10:29:07.083Z,2.13
2018-09-15T10:30:10.480Z,2.67
2018-09-15T10:31:13.893Z,1.97
2018-09-15T10:32:17.311Z,2.00
2018-09-15T10:33:20.736Z,2.00
2018-09-15T10:34:24.120Z,1.80
2018-09-15T10:35:27.523Z,2.23
2018-09-15T10:36:30.925Z,2.07
2018-09-15T10:37:34.356Z,2.03
2018-09-15T10:38:37.836Z,1.77
2018-09-15T10:39:41.160Z,2.00
2018-09-15T10:40:44.540Z,1.97
2018-09-15T10:41:47.949Z,2.10
2018-09-15T10:42:51.481Z,1.97
2018-09-15T10:43:54.895Z,1.83
2018-09-15T10:44:58.334Z,2.03
2018-09-15T10:46:01.794Z,2.23
2018-09-15T10:47:05.455Z,2.10
2018-09-15T10:48:08.845Z,1.80
2018-09-15T10:49:12.476Z,1.53
2018-09-15T10:50:16.769Z,2.10
2018-09-15T10:51:20.606Z,1.87
2018-09-15T10:52:24.749Z,2.27
2018-09-15T10:53:28.199Z,2.03
2018-09-15T10:54:32.721Z,2.10
2018-09-15T10:55:36.289Z,2.20
2018-09-15T10:56:39.715Z,2.27
2018-09-15T10:57:43.198Z,3.37
2018-09-15T10:58:46.951Z,5.00
2018-09-15T10:59:50.751Z,3.87
2018-09-15T11:00:55.055Z,3.30
2018-09-15T11:01:59.214Z,2.80
2018-09-15T11:03:02.687Z,2.90
2018-09-15T11:04:06.512Z,3.00
2018-09-15T11:05:10.484Z,2.93
2018-09-15T11:06:14.270Z,2.80
2018-09-15T11:07:18.009Z,3.27
2018-09-15T11:08:21.522Z,2.73
2018-09-15T11:09:25.221Z,3.07
2018-09-15T11:10:28.876Z,2.80
2018-09-15T11:11:33.582Z,3.40
2018-09-15T11:12:37.531Z,3.93
2018-09-15T11:13:41.031Z,3.40
2018-09-15T11:14:44.707Z,3.93
2018-09-15T11:15:48.444Z,3.40
2018-09-15T11:16:51.908Z,4.30
2018-09-15T11:17:56.185Z,3.80
2018-09-15T11:19:00.306Z,3.60
2018-09-15T11:20:04.060Z,3.80
2018-09-15T11:21:07.739Z,4.00
2018-09-15T11:22:12.314Z,3.23
2018-09-15T11:23:16.455Z,3.63
2018-09-15T11:24:19.974Z,3.33
2018-09-15T11:25:23.428Z,3.43
2018-09-15T11:26:26.854Z,3.30
2018-09-15T11:27:30.233Z,3.50
2018-09-15T11:28:33.783Z,3.73
2018-09-15T11:29:37.722Z,3.43
2018-09-15T11:30:41.137Z,3.40
2018-09-15T11:31:44.688Z,3.07
2018-09-15T11:32:48.062Z,3.40
2018-09-15T11:33:51.508Z,4.07
2018-09-15T11:34:54.974Z,3.80
2018-09-15T11:35:58.430Z,3.47
2018-09-15T11:37:01.956Z,3.67
2018-09-15T11:38:05.524Z,3.43
2018-09-15T11:39:10.254Z,3.47
2018-09-15T11:40:13.803Z,3.17
2018-09-15T11:41:17.384Z,3.10
2018-09-15T11:42:20.656Z,3.60
2018-09-15T11:43:24.027Z,3.07
2018-09-15T11:44:27.441Z,3.60
2018-09-15T11:45:30.905Z,3.23
2018-09-15T11:46:34.361Z,2.87
2018-09-15T11:47:37.857Z,3.03
2018-09-15T11:48:41.259Z,3.50
2018-09-15T11:49:44.709Z,3.50
2018-09-15T11:50:48.163Z,3.90
2018-09-15T11:51:51.711Z,3.37
2018-09-15T11:52:55.155Z,3.27
2018-09-15T11:53:58.654Z,3.20
2018-09-15T11:55:02.328Z,3.57
2018-09-15T11:56:05.810Z,3.30
2018-09-15T11:57:09.209Z,3.93
2018-09-15T11:58:12.569Z,3.50
2018-09-15T11:59:16.025Z,4.00
2018-09-15T12:00:27.630Z,3.40
2018-09-15T12:01:31.082Z,3.33
2018-09-15T12:02:34.567Z,4.33
2018-09-15T12:03:37.994Z,2.80
2018-09-15T12:04:41.455Z,3.73
2018-09-15T12:05:44.894Z,3.30
2018-09-15T12:06:48.297Z,3.93
2018-09-15T12:07:51.708Z,3.30
2018-09-15T12:08:55.260Z,3.57
2018-09-15T12:09:59.197Z,3.10
2018-09-15T12:11:02.661Z,3.50
2018-09-15T12:12:06.126Z,3.33
2018-09-15T12:13:09.654Z,4.10
2018-09-15T12:14:13.221Z,3.33
2018-09-15T12:15:16.669Z,3.87
2018-09-15T12:16:20.090Z,3.50
2018-09-15T12:17:23.511Z,3.17
2018-09-15T12:18:26.921Z,3.17
2018-09-15T12:19:30.314Z,3.70
2018-09-15T12:20:33.740Z,4.00
2018-09-15T12:21:37.227Z,3.00
2018-09-15T12:22:40.620Z,3.10
2018-09-15T12:23:44.071Z,3.40
2018-09-15T12:24:47.495Z,3.40
2018-09-15T12:25:50.888Z,3.03
2018-09-15T12:26:54.303Z,4.13
2018-09-15T12:27:57.774Z,3.20
2018-09-15T12:29:01.198Z,3.40
2018-09-15T12:30:04.978Z,3.20
2018-09-15T12:31:08.395Z,3.30
2018-09-15T12:32:11.806Z,3.00
2018-09-15T12:33:15.174Z,3.07
2018-09-15T12:34:18.598Z,3.60
2018-09-15T12:35:22.008Z,3.43
2018-09-15T12:36:25.387Z,2.90
2018-09-15T12:37:28.798Z,3.27
2018-09-15T12:38:32.230Z,2.90
2018-09-15T12:39:35.717Z,3.40
2018-09-15T12:40:39.361Z,3.80
2018-09-15T12:41:42.780Z,3.10
2018-09-15T12:42:46.204Z,3.07
2018-09-15T12:43:49.695Z,3.10
2018-09-15T12:44:53.129Z,3.10
2018-09-15T12:45:56.484Z,3.87
2018-09-15T12:46:59.868Z,3.20
2018-09-15T12:48:03.260Z,2.83
2018-09-15T12:49:06.701Z,3.07
2018-09-15T12:50:10.112Z,3.40
2018-09-15T12:51:13.650Z,3.10
2018-09-15T12:52:17.147Z,2.63
2018-09-15T12:53:20.553Z,3.23
2018-09-15T12:54:24.249Z,3.33
2018-09-15T12:55:27.650Z,3.57
2018-09-15T12:56:31.051Z,2.57
2018-09-15T12:57:34.740Z,3.40
2018-09-15T12:58:38.126Z,2.90
2018-09-15T12:59:41.540Z,2.63
2018-09-15T13:00:45.039Z,3.10
2018-09-15T13:01:48.416Z,3.13
2018-09-15T13:02:51.819Z,3.50
2018-09-15T13:03:55.242Z,3.00
2018-09-15T13:04:58.696Z,3.40
2018-09-15T13:06:02.227Z,3.73
2018-09-15T13:07:05.918Z,3.43
2018-09-15T13:08:09.329Z,2.90
2018-09-15T13:09:13.559Z,3.17
2018-09-15T13:10:16.983Z,4.30
2018-09-15T13:11:20.411Z,3.50
2018-09-15T13:12:23.804Z,3.03
2018-09-15T13:13:27.345Z,3.10
2018-09-15T13:14:30.764Z,3.20
2018-09-15T13:15:34.214Z,4.23
2018-09-15T13:16:37.926Z,2.90
2018-09-15T13:17:41.362Z,3.20
2018-09-15T13:18:44.796Z,3.30
2018-09-15T13:19:48.207Z,3.07
2018-09-15T13:20:51.949Z,3.20
2018-09-15T13:21:55.428Z,3.30
2018-09-15T13:22:58.855Z,2.60
2018-09-15T13:24:02.286Z,3.57
2018-09-15T13:25:05.844Z,2.87
2018-09-15T13:26:09.210Z,2.60
2018-09-15T13:27:12.569Z,3.20
2018-09-15T13:28:15.986Z,2.77
2018-09-15T13:29:19.375Z,2.57
2018-09-15T13:30:22.929Z,3.27
2018-09-15T13:31:26.259Z,3.20
2018-09-15T13:32:29.691Z,3.53
2018-09-15T13:33:33.842Z,3.93
2018-09-15T13:34:37.415Z,3.30
2018-09-15T13:35:40.842Z,3.20
2018-09-15T13:36:44.251Z,3.93
2018-09-15T13:37:48.015Z,3.20
2018-09-15T13:38:51.518Z,3.63
2018-09-15T13:39:55.658Z,3.00
2018-09-15T13:40:59.916Z,3.00
2018-09-15T13:42:03.767Z,2.93
2018-09-15T13:43:07.542Z,3.37
2018-09-15T13:44:11.324Z,2.90
2018-09-15T13:45:16.244Z,3.00
2018-09-15T13:46:20.102Z,2.57
2018-09-15T13:47:23.825Z,2.57
2018-09-15T13:48:28.111Z,3.07
2018-09-15T13:49:32.688Z,2.70
2018-09-15T13:50:38.528Z,2.77
2018-09-15T13:51:44.557Z,2.37
2018-09-15T13:52:48.436Z,2.10
2018-09-15T13:53:52.355Z,3.10
2018-09-15T13:54:56.181Z,2.70
2018-09-15T13:55:59.996Z,2.50
2018-09-15T13:57:03.828Z,2.73
2018-09-15T13:58:07.288Z,2.60
2018-09-15T13:59:10.711Z,2.27
2018-09-15T14:00:14.519Z,2.53
2018-09-15T14:01:18.290Z,2.60
2018-09-15T14:02:22.417Z,2.53
2018-09-15T14:03:28.396Z,2.70
2018-09-15T14:04:31.926Z,3.00
2018-09-15T14:05:35.910Z,2.50
2018-09-15T14:06:39.632Z,2.23
2018-09-15T14:07:43.859Z,2.63
2018-09-15T14:08:47.486Z,2.80
2018-09-15T14:09:51.040Z,2.20
2018-09-15T14:10:54.508Z,3.00